sensor_id;sensor_type;location;lat;lon;timestamp;temperature;humidity
22491;DHT22;11412;50.802;4.350;2022-10-31T00:00:18;14.40;99.90
22491;DHT22;11412;50.802;4.350;2022-10-31T00:02:44;14.50;99.90
22491;DHT22;11412;50.802;4.350;2022-10-31T00:05:09;14.40;99.90
22491;DHT22;11412;50.802;4.350;2022-10-31T00:07:35;14.30;99.90
22491;DHT22;11412;50.802;4.350;2022-10-31T00:10:01;14.30;99.90
22491;DHT22;11412;50.802;4.350;2022-10-31T00:12:26;14.20;99.90
22491;DHT22;11412;50.802;4.350;2022-10-31T00:14:52;14.30;99.90
22491;DHT22;11412;50.802;4.350;2022-10-31T00:17:17;14.30;99.90
22491;DHT22;11412;50.802;4.350;2022-10-31T00:19:43;14.20;99.90
22491;DHT22;11412;50.802;4.350;2022-10-31T00:22:09;14.10;99.90
22491;DHT22;11412;50.802;4.350;2022-10-31T00:24:34;14.10;99.90
22491;DHT22;11412;50.802;4.350;2022-10-31T00:27:00;14.10;99.90
22491;DHT22;11412;50.802;4.350;2022-10-31T00:29:26;14.00;99.90
22491;DHT22;11412;50.802;4.350;2022-10-31T00:31:52;14.00;99.90
22491;DHT22;11412;50.802;4.350;2022-10-31T00:34:18;13.90;99.90
22491;DHT22;11412;50.802;4.350;2022-10-31T00:36:44;13.80;99.90
22491;DHT22;11412;50.802;4.350;2022-10-31T00:39:09;13.90;99.90
22491;DHT22;11412;50.802;4.350;2022-10-31T00:41:35;13.80;99.90
22491;DHT22;11412;50.802;4.350;2022-10-31T00:44:00;13.80;99.90
22491;DHT22;11412;50.802;4.350;2022-10-31T00:46:26;13.70;99.90
22491;DHT22;11412;50.802;4.350;2022-10-31T00:48:52;13.70;99.90
22491;DHT22;11412;50.802;4.350;2022-10-31T00:51:17;13.60;99.90
22491;DHT22;11412;50.802;4.350;2022-10-31T00:53:43;13.60;99.90
22491;DHT22;11412;50.802;4.350;2022-10-31T00:56:09;13.50;99.90
22491;DHT22;11412;50.802;4.350;2022-10-31T00:58:35;13.50;99.90
22491;DHT22;11412;50.802;4.350;2022-10-31T01:01:00;13.40;99.90
22491;DHT22;11412;50.802;4.350;2022-10-31T01:03:29;13.40;99.90
22491;DHT22;11412;50.802;4.350;2022-10-31T01:06:10;13.40;99.90
22491;DHT22;11412;50.802;4.350;2022-10-31T01:08:37;13.30;99.90
22491;DHT22;11412;50.802;4.350;2022-10-31T01:13:28;13.30;99.90
22491;DHT22;11412;50.802;4.350;2022-10-31T01:15:56;13.30;99.90
22491;DHT22;11412;50.802;4.350;2022-10-31T01:18:22;13.30;99.90
22491;DHT22;11412;50.802;4.350;2022-10-31T01:20:57;13.40;99.90
22491;DHT22;11412;50.802;4.350;2022-10-31T01:23:23;13.40;99.90
22491;DHT22;11412;50.802;4.350;2022-10-31T01:25:49;13.40;99.90
22491;DHT22;11412;50.802;4.350;2022-10-31T01:28:14;13.40;99.90
22491;DHT22;11412;50.802;4.350;2022-10-31T01:30:40;13.40;99.90
22491;DHT22;11412;50.802;4.350;2022-10-31T01:33:06;13.40;99.90
22491;DHT22;11412;50.802;4.350;2022-10-31T01:35:31;13.30;99.90
22491;DHT22;11412;50.802;4.350;2022-10-31T01:37:57;13.30;99.90
22491;DHT22;11412;50.802;4.350;2022-10-31T01:40:22;13.30;99.90
22491;DHT22;11412;50.802;4.350;2022-10-31T01:42:48;13.30;99.90
22491;DHT22;11412;50.802;4.350;2022-10-31T01:45:14;13.30;99.90
22491;DHT22;11412;50.802;4.350;2022-10-31T01:47:45;13.30;99.90
22491;DHT22;11412;50.802;4.350;2022-10-31T01:50:28;13.30;99.90
22491;DHT22;11412;50.802;4.350;2022-10-31T01:52:56;13.20;99.90
22491;DHT22;11412;50.802;4.350;2022-10-31T01:55:35;13.10;99.90
22491;DHT22;11412;50.802;4.350;2022-10-31T01:58:12;13.10;99.90
22491;DHT22;11412;50.802;4.350;2022-10-31T02:00:39;13.00;99.90
22491;DHT22;11412;50.802;4.350;2022-10-31T02:03:07;13.00;99.90
22491;DHT22;11412;50.802;4.350;2022-10-31T02:05:33;13.00;99.90
22491;DHT22;11412;50.802;4.350;2022-10-31T02:08:20;13.00;99.90
22491;DHT22;11412;50.802;4.350;2022-10-31T02:10:47;12.90;99.90
22491;DHT22;11412;50.802;4.350;2022-10-31T02:13:13;12.80;99.90
22491;DHT22;11412;50.802;4.350;2022-10-31T02:15:39;12.80;99.90
22491;DHT22;11412;50.802;4.350;2022-10-31T02:18:07;12.70;99.90
22491;DHT22;11412;50.802;4.350;2022-10-31T02:23:42;12.70;99.90
22491;DHT22;11412;50.802;4.350;2022-10-31T02:26:18;12.70;99.90
22491;DHT22;11412;50.802;4.350;2022-10-31T02:34:30;12.60;99.90
22491;DHT22;11412;50.802;4.350;2022-10-31T02:42:25;12.50;99.90
22491;DHT22;11412;50.802;4.350;2022-10-31T02:45:00;12.50;99.90
22491;DHT22;11412;50.802;4.350;2022-10-31T02:47:29;12.50;99.90
22491;DHT22;11412;50.802;4.350;2022-10-31T02:50:05;12.60;99.90
22491;DHT22;11412;50.802;4.350;2022-10-31T02:52:34;12.50;99.90
22491;DHT22;11412;50.802;4.350;2022-10-31T02:55:11;12.50;99.90
22491;DHT22;11412;50.802;4.350;2022-10-31T02:57:39;12.50;99.90
22491;DHT22;11412;50.802;4.350;2022-10-31T03:00:07;12.40;99.90
22491;DHT22;11412;50.802;4.350;2022-10-31T03:05:44;12.30;99.90
22491;DHT22;11412;50.802;4.350;2022-10-31T03:08:22;12.40;99.90
22491;DHT22;11412;50.802;4.350;2022-10-31T03:10:58;12.40;99.90
22491;DHT22;11412;50.802;4.350;2022-10-31T03:16:25;12.30;99.90
22491;DHT22;11412;50.802;4.350;2022-10-31T03:19:00;12.30;99.90
22491;DHT22;11412;50.802;4.350;2022-10-31T03:21:42;12.30;99.90
22491;DHT22;11412;50.802;4.350;2022-10-31T03:24:10;12.30;99.90
22491;DHT22;11412;50.802;4.350;2022-10-31T03:26:39;12.20;99.90
22491;DHT22;11412;50.802;4.350;2022-10-31T03:29:08;12.20;99.90
22491;DHT22;11412;50.802;4.350;2022-10-31T03:32:03;12.20;99.90
22491;DHT22;11412;50.802;4.350;2022-10-31T03:34:32;12.10;99.90
22491;DHT22;11412;50.802;4.350;2022-10-31T03:37:02;12.20;99.90
22491;DHT22;11412;50.802;4.350;2022-10-31T03:39:29;12.30;99.90
22491;DHT22;11412;50.802;4.350;2022-10-31T03:42:07;12.20;99.90
22491;DHT22;11412;50.802;4.350;2022-10-31T03:44:35;12.10;99.90
22491;DHT22;11412;50.802;4.350;2022-10-31T03:47:01;12.20;99.90
22491;DHT22;11412;50.802;4.350;2022-10-31T03:49:29;12.10;99.90
22491;DHT22;11412;50.802;4.350;2022-10-31T03:52:00;12.10;99.90
22491;DHT22;11412;50.802;4.350;2022-10-31T03:59:54;12.00;99.90
22491;DHT22;11412;50.802;4.350;2022-10-31T04:02:23;12.00;99.90
22491;DHT22;11412;50.802;4.350;2022-10-31T04:04:51;11.90;99.90
22491;DHT22;11412;50.802;4.350;2022-10-31T04:07:18;12.00;99.90
22491;DHT22;11412;50.802;4.350;2022-10-31T04:09:47;12.00;99.90
22491;DHT22;11412;50.802;4.350;2022-10-31T04:12:15;12.00;99.90
22491;DHT22;11412;50.802;4.350;2022-10-31T04:14:43;12.10;99.90
22491;DHT22;11412;50.802;4.350;2022-10-31T04:17:14;11.90;99.90
22491;DHT22;11412;50.802;4.350;2022-10-31T04:19:41;11.90;99.90
22491;DHT22;11412;50.802;4.350;2022-10-31T04:22:07;11.90;99.90
22491;DHT22;11412;50.802;4.350;2022-10-31T04:24:32;11.90;99.90
22491;DHT22;11412;50.802;4.350;2022-10-31T04:26:58;11.90;99.90
22491;DHT22;11412;50.802;4.350;2022-10-31T04:29:24;11.90;99.90
22491;DHT22;11412;50.802;4.350;2022-10-31T04:31:49;11.90;99.90
22491;DHT22;11412;50.802;4.350;2022-10-31T04:34:15;12.00;99.90
22491;DHT22;11412;50.802;4.350;2022-10-31T04:36:40;12.10;99.90
22491;DHT22;11412;50.802;4.350;2022-10-31T04:39:06;12.10;99.90
22491;DHT22;11412;50.802;4.350;2022-10-31T04:41:32;12.00;99.90
22491;DHT22;11412;50.802;4.350;2022-10-31T04:43:57;12.00;99.90
22491;DHT22;11412;50.802;4.350;2022-10-31T04:46:23;12.00;99.90
22491;DHT22;11412;50.802;4.350;2022-10-31T04:48:49;11.90;99.90
22491;DHT22;11412;50.802;4.350;2022-10-31T04:51:14;11.90;99.90
22491;DHT22;11412;50.802;4.350;2022-10-31T04:53:40;11.90;99.90
22491;DHT22;11412;50.802;4.350;2022-10-31T04:56:06;11.90;99.90
22491;DHT22;11412;50.802;4.350;2022-10-31T04:58:31;11.90;99.90
22491;DHT22;11412;50.802;4.350;2022-10-31T05:00:57;11.80;99.90
22491;DHT22;11412;50.802;4.350;2022-10-31T05:03:23;11.90;99.90
22491;DHT22;11412;50.802;4.350;2022-10-31T05:05:48;11.80;99.90
22491;DHT22;11412;50.802;4.350;2022-10-31T05:08:14;11.80;99.90
22491;DHT22;11412;50.802;4.350;2022-10-31T05:10:40;11.90;99.90
22491;DHT22;11412;50.802;4.350;2022-10-31T05:13:07;12.00;99.90
22491;DHT22;11412;50.802;4.350;2022-10-31T05:15:33;12.10;99.90
22491;DHT22;11412;50.802;4.350;2022-10-31T05:17:59;12.00;99.90
22491;DHT22;11412;50.802;4.350;2022-10-31T05:20:27;12.00;99.90
22491;DHT22;11412;50.802;4.350;2022-10-31T05:22:54;12.00;99.90
22491;DHT22;11412;50.802;4.350;2022-10-31T05:25:23;12.10;99.90
22491;DHT22;11412;50.802;4.350;2022-10-31T05:27:50;12.10;99.90
22491;DHT22;11412;50.802;4.350;2022-10-31T05:30:20;12.10;99.90
22491;DHT22;11412;50.802;4.350;2022-10-31T05:32:48;12.20;99.90
22491;DHT22;11412;50.802;4.350;2022-10-31T05:35:20;12.10;99.90
22491;DHT22;11412;50.802;4.350;2022-10-31T05:37:46;12.20;99.90
22491;DHT22;11412;50.802;4.350;2022-10-31T05:40:13;12.30;99.90
22491;DHT22;11412;50.802;4.350;2022-10-31T05:42:40;12.20;99.90
22491;DHT22;11412;50.802;4.350;2022-10-31T05:45:08;12.20;99.90
22491;DHT22;11412;50.802;4.350;2022-10-31T05:47:33;12.20;99.90
22491;DHT22;11412;50.802;4.350;2022-10-31T05:49:59;12.20;99.90
22491;DHT22;11412;50.802;4.350;2022-10-31T05:52:24;12.20;99.90
22491;DHT22;11412;50.802;4.350;2022-10-31T05:54:50;12.20;99.90
22491;DHT22;11412;50.802;4.350;2022-10-31T05:57:16;12.30;99.90
22491;DHT22;11412;50.802;4.350;2022-10-31T05:59:41;12.30;99.90
22491;DHT22;11412;50.802;4.350;2022-10-31T06:02:07;12.40;99.90
22491;DHT22;11412;50.802;4.350;2022-10-31T06:04:33;12.40;99.90
22491;DHT22;11412;50.802;4.350;2022-10-31T06:06:58;12.40;99.90
22491;DHT22;11412;50.802;4.350;2022-10-31T06:09:24;12.50;99.90
22491;DHT22;11412;50.802;4.350;2022-10-31T06:11:49;12.50;99.90
22491;DHT22;11412;50.802;4.350;2022-10-31T06:14:15;12.50;99.90
22491;DHT22;11412;50.802;4.350;2022-10-31T06:16:40;12.60;99.90
22491;DHT22;11412;50.802;4.350;2022-10-31T06:19:06;12.50;99.90
22491;DHT22;11412;50.802;4.350;2022-10-31T06:21:32;12.60;99.90
22491;DHT22;11412;50.802;4.350;2022-10-31T06:23:57;12.60;99.90
22491;DHT22;11412;50.802;4.350;2022-10-31T06:26:23;12.60;99.90
22491;DHT22;11412;50.802;4.350;2022-10-31T06:28:48;12.60;99.90
22491;DHT22;11412;50.802;4.350;2022-10-31T06:31:14;12.60;99.90
22491;DHT22;11412;50.802;4.350;2022-10-31T06:33:42;12.60;99.90
22491;DHT22;11412;50.802;4.350;2022-10-31T06:36:08;12.80;99.90
22491;DHT22;11412;50.802;4.350;2022-10-31T06:38:34;12.70;99.90
22491;DHT22;11412;50.802;4.350;2022-10-31T06:41:04;12.70;99.90
22491;DHT22;11412;50.802;4.350;2022-10-31T06:43:30;12.80;99.90
22491;DHT22;11412;50.802;4.350;2022-10-31T06:45:56;12.80;99.90
22491;DHT22;11412;50.802;4.350;2022-10-31T06:48:21;12.90;99.90
22491;DHT22;11412;50.802;4.350;2022-10-31T06:50:47;13.00;99.90
22491;DHT22;11412;50.802;4.350;2022-10-31T06:53:13;13.00;99.90
22491;DHT22;11412;50.802;4.350;2022-10-31T06:55:40;13.10;99.90
22491;DHT22;11412;50.802;4.350;2022-10-31T06:58:06;13.20;99.90
22491;DHT22;11412;50.802;4.350;2022-10-31T07:00:33;13.30;99.90
22491;DHT22;11412;50.802;4.350;2022-10-31T07:03:05;13.30;99.90
22491;DHT22;11412;50.802;4.350;2022-10-31T07:05:31;13.30;99.90
22491;DHT22;11412;50.802;4.350;2022-10-31T07:08:02;13.40;99.90
22491;DHT22;11412;50.802;4.350;2022-10-31T07:10:29;13.40;99.90
22491;DHT22;11412;50.802;4.350;2022-10-31T07:13:00;13.50;99.90
22491;DHT22;11412;50.802;4.350;2022-10-31T07:15:28;13.70;99.90
22491;DHT22;11412;50.802;4.350;2022-10-31T07:17:59;13.70;99.90
22491;DHT22;11412;50.802;4.350;2022-10-31T07:20:27;13.70;99.90
22491;DHT22;11412;50.802;4.350;2022-10-31T07:22:52;13.70;99.90
22491;DHT22;11412;50.802;4.350;2022-10-31T07:25:18;13.80;99.90
22491;DHT22;11412;50.802;4.350;2022-10-31T07:27:43;13.90;99.90
22491;DHT22;11412;50.802;4.350;2022-10-31T07:30:11;13.80;99.90
22491;DHT22;11412;50.802;4.350;2022-10-31T07:32:47;13.80;99.90
22491;DHT22;11412;50.802;4.350;2022-10-31T07:35:16;13.80;99.90
22491;DHT22;11412;50.802;4.350;2022-10-31T07:37:42;13.80;99.90
22491;DHT22;11412;50.802;4.350;2022-10-31T07:40:08;13.80;99.90
22491;DHT22;11412;50.802;4.350;2022-10-31T07:42:45;13.90;99.90
22491;DHT22;11412;50.802;4.350;2022-10-31T07:45:13;14.00;99.90
22491;DHT22;11412;50.802;4.350;2022-10-31T07:47:42;14.00;99.90
22491;DHT22;11412;50.802;4.350;2022-10-31T07:50:10;14.10;99.90
22491;DHT22;11412;50.802;4.350;2022-10-31T07:52:36;14.10;99.90
22491;DHT22;11412;50.802;4.350;2022-10-31T07:55:03;14.10;99.90
22491;DHT22;11412;50.802;4.350;2022-10-31T07:57:29;14.10;99.90
22491;DHT22;11412;50.802;4.350;2022-10-31T07:59:54;14.20;99.90
22491;DHT22;11412;50.802;4.350;2022-10-31T08:02:20;14.30;99.90
22491;DHT22;11412;50.802;4.350;2022-10-31T08:04:46;14.40;99.90
22491;DHT22;11412;50.802;4.350;2022-10-31T08:07:12;14.30;99.90
22491;DHT22;11412;50.802;4.350;2022-10-31T08:09:37;14.30;99.90
22491;DHT22;11412;50.802;4.350;2022-10-31T08:12:03;14.30;99.90
22491;DHT22;11412;50.802;4.350;2022-10-31T08:14:29;14.40;99.90
22491;DHT22;11412;50.802;4.350;2022-10-31T08:16:55;14.40;99.90
22491;DHT22;11412;50.802;4.350;2022-10-31T08:19:20;14.40;99.90
22491;DHT22;11412;50.802;4.350;2022-10-31T08:21:46;14.50;99.90
22491;DHT22;11412;50.802;4.350;2022-10-31T08:24:12;14.60;99.90
22491;DHT22;11412;50.802;4.350;2022-10-31T08:26:37;14.70;99.90
22491;DHT22;11412;50.802;4.350;2022-10-31T08:29:03;14.60;99.90
22491;DHT22;11412;50.802;4.350;2022-10-31T08:31:29;14.70;99.90
22491;DHT22;11412;50.802;4.350;2022-10-31T08:33:55;14.70;99.90
22491;DHT22;11412;50.802;4.350;2022-10-31T08:36:21;14.70;99.90
22491;DHT22;11412;50.802;4.350;2022-10-31T08:38:47;14.60;99.90
22491;DHT22;11412;50.802;4.350;2022-10-31T08:41:14;14.60;99.90
22491;DHT22;11412;50.802;4.350;2022-10-31T08:43:40;14.60;99.90
22491;DHT22;11412;50.802;4.350;2022-10-31T08:46:06;14.60;99.90
22491;DHT22;11412;50.802;4.350;2022-10-31T08:48:31;14.60;99.90
22491;DHT22;11412;50.802;4.350;2022-10-31T08:50:58;14.60;99.90
22491;DHT22;11412;50.802;4.350;2022-10-31T08:53:24;14.70;99.90
22491;DHT22;11412;50.802;4.350;2022-10-31T08:55:50;14.70;99.90
22491;DHT22;11412;50.802;4.350;2022-10-31T08:58:18;14.80;99.90
22491;DHT22;11412;50.802;4.350;2022-10-31T09:00:45;14.90;99.90
22491;DHT22;11412;50.802;4.350;2022-10-31T09:03:17;14.90;99.90
22491;DHT22;11412;50.802;4.350;2022-10-31T09:05:43;15.00;99.90
22491;DHT22;11412;50.802;4.350;2022-10-31T09:08:09;15.00;99.90
22491;DHT22;11412;50.802;4.350;2022-10-31T09:10:36;15.20;99.90
22491;DHT22;11412;50.802;4.350;2022-10-31T09:13:05;15.20;99.90
22491;DHT22;11412;50.802;4.350;2022-10-31T09:15:36;15.30;99.90
22491;DHT22;11412;50.802;4.350;2022-10-31T09:18:04;15.30;99.90
22491;DHT22;11412;50.802;4.350;2022-10-31T09:20:31;15.40;99.90
22491;DHT22;11412;50.802;4.350;2022-10-31T09:23:11;15.40;99.90
22491;DHT22;11412;50.802;4.350;2022-10-31T09:25:38;15.60;99.90
22491;DHT22;11412;50.802;4.350;2022-10-31T09:28:05;15.70;99.90
22491;DHT22;11412;50.802;4.350;2022-10-31T09:30:33;15.50;99.90
22491;DHT22;11412;50.802;4.350;2022-10-31T09:33:02;15.40;99.90
22491;DHT22;11412;50.802;4.350;2022-10-31T09:35:29;15.50;99.90
22491;DHT22;11412;50.802;4.350;2022-10-31T09:38:05;15.40;99.90
22491;DHT22;11412;50.802;4.350;2022-10-31T09:46:04;15.30;99.90
22491;DHT22;11412;50.802;4.350;2022-10-31T09:48:56;15.30;99.90
22491;DHT22;11412;50.802;4.350;2022-10-31T09:54:20;15.40;99.90
22491;DHT22;11412;50.802;4.350;2022-10-31T09:56:46;15.40;99.90
22491;DHT22;11412;50.802;4.350;2022-10-31T10:09:44;16.00;99.90
22491;DHT22;11412;50.802;4.350;2022-10-31T10:12:43;16.00;99.90
22491;DHT22;11412;50.802;4.350;2022-10-31T10:15:37;16.10;99.90
22491;DHT22;11412;50.802;4.350;2022-10-31T10:18:26;16.20;99.90
22491;DHT22;11412;50.802;4.350;2022-10-31T10:20:59;16.20;99.90
22491;DHT22;11412;50.802;4.350;2022-10-31T10:23:49;16.30;99.90
22491;DHT22;11412;50.802;4.350;2022-10-31T10:26:21;16.50;99.90
22491;DHT22;11412;50.802;4.350;2022-10-31T10:28:57;16.70;99.90
22491;DHT22;11412;50.802;4.350;2022-10-31T10:31:34;16.60;99.90
22491;DHT22;11412;50.802;4.350;2022-10-31T10:34:18;16.70;99.90
22491;DHT22;11412;50.802;4.350;2022-10-31T10:36:54;16.60;99.90
22491;DHT22;11412;50.802;4.350;2022-10-31T10:39:39;16.60;99.90
22491;DHT22;11412;50.802;4.350;2022-10-31T10:42:14;16.60;99.90
22491;DHT22;11412;50.802;4.350;2022-10-31T10:44:59;16.60;99.90
22491;DHT22;11412;50.802;4.350;2022-10-31T10:47:52;16.60;99.90
22491;DHT22;11412;50.802;4.350;2022-10-31T10:50:30;16.50;99.90
22491;DHT22;11412;50.802;4.350;2022-10-31T10:58:29;16.40;99.90
22491;DHT22;11412;50.802;4.350;2022-10-31T11:00:55;16.50;99.90
22491;DHT22;11412;50.802;4.350;2022-10-31T11:03:21;16.50;99.90
22491;DHT22;11412;50.802;4.350;2022-10-31T11:05:55;16.60;99.90
22491;DHT22;11412;50.802;4.350;2022-10-31T11:08:35;16.80;99.90
22491;DHT22;11412;50.802;4.350;2022-10-31T11:14:02;16.90;99.90
22491;DHT22;11412;50.802;4.350;2022-10-31T11:16:36;17.00;99.90
22491;DHT22;11412;50.802;4.350;2022-10-31T11:19:09;17.20;99.90
22491;DHT22;11412;50.802;4.350;2022-10-31T11:21:42;17.20;99.90
22491;DHT22;11412;50.802;4.350;2022-10-31T11:26:36;17.20;99.90
22491;DHT22;11412;50.802;4.350;2022-10-31T11:29:04;17.30;99.90
22491;DHT22;11412;50.802;4.350;2022-10-31T11:31:32;17.30;99.90
22491;DHT22;11412;50.802;4.350;2022-10-31T11:34:12;17.50;99.90
22491;DHT22;11412;50.802;4.350;2022-10-31T11:36:42;17.70;99.90
22491;DHT22;11412;50.802;4.350;2022-10-31T11:39:20;17.80;99.90
22491;DHT22;11412;50.802;4.350;2022-10-31T11:41:47;17.80;99.90
22491;DHT22;11412;50.802;4.350;2022-10-31T11:46:49;17.90;99.90
22491;DHT22;11412;50.802;4.350;2022-10-31T11:49:40;17.80;99.90
22491;DHT22;11412;50.802;4.350;2022-10-31T11:52:19;17.80;99.90
22491;DHT22;11412;50.802;4.350;2022-10-31T11:54:58;17.90;99.90
22491;DHT22;11412;50.802;4.350;2022-10-31T11:57:31;18.00;99.90
22491;DHT22;11412;50.802;4.350;2022-10-31T11:59:59;18.30;99.90
22491;DHT22;11412;50.802;4.350;2022-10-31T12:02:26;18.40;99.90
22491;DHT22;11412;50.802;4.350;2022-10-31T12:04:59;18.60;99.90
22491;DHT22;11412;50.802;4.350;2022-10-31T12:07:26;18.70;99.90
22491;DHT22;11412;50.802;4.350;2022-10-31T12:09:52;19.00;99.90
22491;DHT22;11412;50.802;4.350;2022-10-31T12:14:55;19.30;99.90
22491;DHT22;11412;50.802;4.350;2022-10-31T12:17:38;19.60;99.90
22491;DHT22;11412;50.802;4.350;2022-10-31T12:20:23;20.00;99.90
22491;DHT22;11412;50.802;4.350;2022-10-31T12:37:24;22.60;99.90
22491;DHT22;11412;50.802;4.350;2022-10-31T12:40:11;22.90;99.90
22491;DHT22;11412;50.802;4.350;2022-10-31T12:53:28;22.90;99.90
22491;DHT22;11412;50.802;4.350;2022-10-31T12:59:33;23.10;99.90
22491;DHT22;11412;50.802;4.350;2022-10-31T13:05:24;23.40;99.90
22491;DHT22;11412;50.802;4.350;2022-10-31T13:12:57;23.50;99.90
22491;DHT22;11412;50.802;4.350;2022-10-31T13:15:27;23.20;99.90
22491;DHT22;11412;50.802;4.350;2022-10-31T13:18:00;23.20;99.90
22491;DHT22;11412;50.802;4.350;2022-10-31T13:23:28;23.10;99.90
22491;DHT22;11412;50.802;4.350;2022-10-31T13:25:59;23.00;99.90
22491;DHT22;11412;50.802;4.350;2022-10-31T13:28:33;22.90;99.90
22491;DHT22;11412;50.802;4.350;2022-10-31T13:31:00;22.90;99.90
22491;DHT22;11412;50.802;4.350;2022-10-31T13:33:37;23.00;99.90
22491;DHT22;11412;50.802;4.350;2022-10-31T13:39:20;22.90;99.90
22491;DHT22;11412;50.802;4.350;2022-10-31T13:42:02;22.60;99.90
22491;DHT22;11412;50.802;4.350;2022-10-31T13:44:30;22.70;99.90
22491;DHT22;11412;50.802;4.350;2022-10-31T13:47:00;22.50;99.90
22491;DHT22;11412;50.802;4.350;2022-10-31T13:54:38;22.30;99.90
22491;DHT22;11412;50.802;4.350;2022-10-31T13:57:18;22.20;99.90
22491;DHT22;11412;50.802;4.350;2022-10-31T13:59:53;22.10;99.90
22491;DHT22;11412;50.802;4.350;2022-10-31T14:02:44;22.00;99.90
22491;DHT22;11412;50.802;4.350;2022-10-31T14:05:35;22.10;99.90
22491;DHT22;11412;50.802;4.350;2022-10-31T14:08:05;22.00;99.90
22491;DHT22;11412;50.802;4.350;2022-10-31T14:10:38;21.90;99.90
22491;DHT22;11412;50.802;4.350;2022-10-31T14:13:32;21.90;99.90
22491;DHT22;11412;50.802;4.350;2022-10-31T14:16:06;22.00;99.90
22491;DHT22;11412;50.802;4.350;2022-10-31T14:18:41;22.00;99.90
22491;DHT22;11412;50.802;4.350;2022-10-31T14:23:51;21.90;99.90
22491;DHT22;11412;50.802;4.350;2022-10-31T14:26:33;21.90;99.90
22491;DHT22;11412;50.802;4.350;2022-10-31T14:34:42;21.50;99.90
22491;DHT22;11412;50.802;4.350;2022-10-31T14:37:47;21.30;99.90
22491;DHT22;11412;50.802;4.350;2022-10-31T14:49:01;21.30;99.90
22491;DHT22;11412;50.802;4.350;2022-10-31T14:54:01;21.30;99.90
22491;DHT22;11412;50.802;4.350;2022-10-31T14:56:29;20.90;99.90
22491;DHT22;11412;50.802;4.350;2022-10-31T14:58:59;20.70;99.90
22491;DHT22;11412;50.802;4.350;2022-10-31T15:01:31;20.80;99.90
22491;DHT22;11412;50.802;4.350;2022-10-31T15:04:03;20.70;99.90
22491;DHT22;11412;50.802;4.350;2022-10-31T15:06:38;20.50;99.90
22491;DHT22;11412;50.802;4.350;2022-10-31T15:09:20;20.50;99.90
22491;DHT22;11412;50.802;4.350;2022-10-31T15:11:45;20.40;99.90
22491;DHT22;11412;50.802;4.350;2022-10-31T15:14:26;20.30;99.90
22491;DHT22;11412;50.802;4.350;2022-10-31T15:16:52;20.10;99.90
22491;DHT22;11412;50.802;4.350;2022-10-31T15:19:23;20.00;99.90
22491;DHT22;11412;50.802;4.350;2022-10-31T15:21:52;19.90;99.90
22491;DHT22;11412;50.802;4.350;2022-10-31T15:24:18;19.90;99.90
22491;DHT22;11412;50.802;4.350;2022-10-31T15:26:49;19.70;99.90
22491;DHT22;11412;50.802;4.350;2022-10-31T15:29:25;19.50;99.90
22491;DHT22;11412;50.802;4.350;2022-10-31T15:32:00;19.30;99.90
22491;DHT22;11412;50.802;4.350;2022-10-31T15:34:40;19.00;99.90
22491;DHT22;11412;50.802;4.350;2022-10-31T15:37:14;18.90;99.90
22491;DHT22;11412;50.802;4.350;2022-10-31T15:39:40;18.90;99.90
22491;DHT22;11412;50.802;4.350;2022-10-31T15:42:28;18.90;99.90
22491;DHT22;11412;50.802;4.350;2022-10-31T15:45:27;19.00;99.90
22491;DHT22;11412;50.802;4.350;2022-10-31T15:48:17;18.70;99.90
22491;DHT22;11412;50.802;4.350;2022-10-31T15:50:55;18.50;99.90
22491;DHT22;11412;50.802;4.350;2022-10-31T15:53:22;18.40;99.90
22491;DHT22;11412;50.802;4.350;2022-10-31T15:55:55;18.30;99.90
22491;DHT22;11412;50.802;4.350;2022-10-31T15:58:21;18.30;99.90
22491;DHT22;11412;50.802;4.350;2022-10-31T16:01:21;18.20;99.90
22491;DHT22;11412;50.802;4.350;2022-10-31T16:04:21;18.20;99.90
22491;DHT22;11412;50.802;4.350;2022-10-31T16:07:17;18.00;99.90
22491;DHT22;11412;50.802;4.350;2022-10-31T16:09:52;17.80;99.90
22491;DHT22;11412;50.802;4.350;2022-10-31T16:12:18;17.70;99.90
22491;DHT22;11412;50.802;4.350;2022-10-31T16:14:44;17.80;99.90
22491;DHT22;11412;50.802;4.350;2022-10-31T16:17:18;17.60;99.90
22491;DHT22;11412;50.802;4.350;2022-10-31T16:20:03;17.70;99.90
22491;DHT22;11412;50.802;4.350;2022-10-31T16:22:36;17.50;99.90
22491;DHT22;11412;50.802;4.350;2022-10-31T16:25:12;17.30;99.90
22491;DHT22;11412;50.802;4.350;2022-10-31T16:27:46;17.20;99.90
22491;DHT22;11412;50.802;4.350;2022-10-31T16:33:01;17.10;99.90
22491;DHT22;11412;50.802;4.350;2022-10-31T16:35:35;17.00;99.90
22491;DHT22;11412;50.802;4.350;2022-10-31T16:38:01;16.90;99.90
22491;DHT22;11412;50.802;4.350;2022-10-31T16:40:27;16.90;99.90
22491;DHT22;11412;50.802;4.350;2022-10-31T16:42:53;16.70;99.90
22491;DHT22;11412;50.802;4.350;2022-10-31T16:45:24;16.90;99.90
22491;DHT22;11412;50.802;4.350;2022-10-31T16:47:50;17.20;99.90
22491;DHT22;11412;50.802;4.350;2022-10-31T16:50:25;17.40;99.90
22491;DHT22;11412;50.802;4.350;2022-10-31T16:52:52;17.50;99.90
22491;DHT22;11412;50.802;4.350;2022-10-31T16:55:19;17.80;99.90
22491;DHT22;11412;50.802;4.350;2022-10-31T16:57:52;18.10;99.90
22491;DHT22;11412;50.802;4.350;2022-10-31T17:00:24;18.00;99.90
22491;DHT22;11412;50.802;4.350;2022-10-31T17:02:51;18.00;99.90
22491;DHT22;11412;50.802;4.350;2022-10-31T17:05:19;18.10;99.90
22491;DHT22;11412;50.802;4.350;2022-10-31T17:07:46;18.00;99.90
22491;DHT22;11412;50.802;4.350;2022-10-31T17:10:13;18.10;99.90
22491;DHT22;11412;50.802;4.350;2022-10-31T17:12:42;18.10;99.90
22491;DHT22;11412;50.802;4.350;2022-10-31T17:15:27;18.00;99.90
22491;DHT22;11412;50.802;4.350;2022-10-31T17:17:54;18.10;99.90
22491;DHT22;11412;50.802;4.350;2022-10-31T17:20:27;18.10;99.90
22491;DHT22;11412;50.802;4.350;2022-10-31T17:22:54;18.10;99.90
22491;DHT22;11412;50.802;4.350;2022-10-31T17:25:25;18.10;99.90
22491;DHT22;11412;50.802;4.350;2022-10-31T17:27:51;18.00;99.90
22491;DHT22;11412;50.802;4.350;2022-10-31T17:30:18;17.90;99.90
22491;DHT22;11412;50.802;4.350;2022-10-31T17:32:45;18.00;99.90
22491;DHT22;11412;50.802;4.350;2022-10-31T17:35:12;18.10;99.90
22491;DHT22;11412;50.802;4.350;2022-10-31T17:37:39;18.20;99.90
22491;DHT22;11412;50.802;4.350;2022-10-31T17:40:06;18.40;99.90
22491;DHT22;11412;50.802;4.350;2022-10-31T17:42:32;18.50;99.90
22491;DHT22;11412;50.802;4.350;2022-10-31T17:44:57;18.40;99.90
22491;DHT22;11412;50.802;4.350;2022-10-31T17:47:23;18.30;99.90
22491;DHT22;11412;50.802;4.350;2022-10-31T17:49:49;18.30;99.90
22491;DHT22;11412;50.802;4.350;2022-10-31T17:52:14;18.20;99.90
22491;DHT22;11412;50.802;4.350;2022-10-31T17:54:40;18.20;99.90
22491;DHT22;11412;50.802;4.350;2022-10-31T17:57:05;18.00;99.90
22491;DHT22;11412;50.802;4.350;2022-10-31T17:59:31;18.20;99.90
22491;DHT22;11412;50.802;4.350;2022-10-31T18:01:57;18.10;99.90